NEODyS-2

Near Earth Objects - Dynamic Site
NEODyS ∴ Observatories ∴ Site 691 ∴ Obs & residuals
Contact »
691  ▹ 
OBSERVATIONS AND RESIDUALS

691-Steward Observatory, Kitt Peak-Spacewatch

Detections | Residuals | Detections & Residuals

[1-200] [201-400] [401-600] [601-800] [801-1000] [1001-1200] [1201-1400] [1401-1600] [1601-1800] [1801-2000] [2001-2200] [2201-2400] [2401-2600] [2601-2800] [2801-3000] [3001-3200] [3201-3400] [3401-3600] [3601-3800] [3801-4000] [4001-4200] [4201-4400] [4401-4600] [4601-4800] [4801-5000] [5001-5200] [5201-5400] [5401-5600] [5601-5800] [5801-6000] [6001-6200] [6201-6400] [6401-6600] [6601-6800] [6801-7000] [7001-7200] [7201-7400] [7401-7600] [7601-7800] [7801-8000] [8001-8200] [8201-8400] [8401-8600] [8601-8800] [8801-9000] [9001-9200] [9201-9400] [9401-9600] [9601-9800] [9801-10000] [10001-10200] [10201-10400] [10401-10600] [10601-10800] [10801-11000] [11001-11200] [11201-11400] [11401-11600] [11601-11800] [11801-12000] [12001-12200] [12201-12400] [12401-12600] [12601-12800] [12801-13000] [13001-13200] [13201-13400] [13401-13600] [13601-13800] [13801-14000] [14001-14200] [14201-14400] [14401-14600] [14601-14800] [14801-15000] [15001-15200] [15201-15400] [15401-15600] [15601-15800] [15801-16000] [16001-16200] [16201-16400] [16401-16600] [16601-16800] [16801-17000] [17001-17200] [17201-17400] [17401-17600] [17601-17800] [17801-18000] [18001-18200] [18201-18400] [18401-18600] [18601-18800] [18801-19000] [19001-19200] [19201-19400] [19401-19600] [19601-19800] [19801-20000] [20001-20200] [20201-20400] [20401-20600] [20601-20800] [20801-21000] [21001-21200] [21201-21400] [21401-21600] [21601-21800] [21801-22000] [22001-22200] [22201-22400] [22401-22600] [22601-22800] [22801-23000] [23001-23200] [23201-23400] [23401-23600] [23601-23800] [23801-24000] [24001-24200] [24201-24400] [24401-24600] [24601-24800] [24801-25000] [25001-25200] [25201-25400] [25401-25600] [25601-25800] [25801-26000] [26001-26200] [26201-26400] [26401-26600] [26601-26800] [26801-27000] [27001-27200] [27201-27400] [27401-27600] [27601-27800] [27801-28000] [28001-28200] [28201-28400] [28401-28600] [28601-28800] [28801-29000] [29001-29200] [29201-29400] [29401-29600] [29601-29800] [29801-30000] [30001-30200] [30201-30400] [30401-30600] [30601-30800] [30801-31000] [31001-31200] [31201-31400] [31401-31600] [31601-31800] [31801-32000] [32001-32200] [32201-32400] [32401-32600] [32601-32800] [32801-33000] [33001-33200] [33201-33400] [33401-33600] [33601-33800] [33801-34000] [34001-34200] [34201-34400] [34401-34600] [34601-34800] [34801-35000] [35001-35200] [35201-35400] [35401-35600] [35601-35800] [35801-36000] [36001-36200] [36201-36400] [36401-36600] [36601-36800] [36801-37000] [37001-37200] [37201-37400] [37401-37600] [37601-37800] [37801-38000] [38001-38200] [38201-38400] [38401-38600] [38601-38800] [38801-39000] [39001-39200] [39201-39400] [39401-39600] [39601-39800] [39801-40000] [40001-40200] [40201-40400] [40401-40600] [40601-40800] [40801-41000] [41001-41200] [41201-41400] [41401-41600] [41601-41800] [41801-42000] [42001-42200] [42201-42400] [42401-42600] [42601-42800] [42801-43000] [43001-43200] [43201-43400] [43401-43600] [43601-43800] [43801-44000] [44001-44200] [44201-44400] [44401-44600] [44601-44800] [44801-45000] [45001-45200] [45201-45400] [45401-45600] [45601-45800] [45801-46000] [46001-46200] [46201-46400] [46401-46600] [46601-46800] [46801-47000] [47001-47200] [47201-47400] [47401-47600] [47601-47800] [47801-48000] [48001-48200] [48201-48400] [48401-48600] [48601-48800] [48801-49000] [49001-49200] [49201-49400] [49401-49600] [49601-49800] [49801-50000] [50001-50200] [50201-50388]

Designation T Tech N Date Right Ascension Declination Apparent Magnitude Star Catalog Site code χ Used A Used M
yr-mo-day precision hr:min:sec precision rms F bias residual deg min sec precision rms F bias residual mag/col rms residual
2003MT2 O C 1998-01-28.20118 1.000E-05 08:08:52.650 1.500E-01 0.600 F -0.227 -0.238 +23° 03' 26.10" 1.000E-01 0.600 F -0.303 -0.046 20.3 V 0.70 0.39 i 691 0.40 Yes Yes
2003MT2 O C 1998-01-28.20697 1.000E-05 08:08:52.130 1.500E-01 0.600 F -0.227 -0.411 +23° 03' 25.10" 1.000E-01 0.600 F -0.303 -0.027 20.4 V 0.70 0.49 i 691 0.69 Yes Yes
2003MT2 O C 1998-01-28.21429 1.000E-05 08:08:51.500 1.500E-01 0.600 F -0.227 -0.248 +23° 03' 23.60" 1.000E-01 0.600 F -0.303 -0.237 20.4 V 0.70 0.49 i 691 0.57 Yes Yes
1998BT13 O c 1998-01-28.30416 1.000E-05 11:18:03.310 1.500E-01 0.600 F 0.076 2.404 +09° 43' 38.50" 1.000E-01 0.600 F -0.496 1.043 20.2 V 0.70 -0.09 i 691 4.07 No Yes
1991CB1 O c 1998-01-28.51891 1.000E-05 13:19:46.500 1.500E-01 0.600 F -0.489 -0.804 -21° 11' 44.90" 1.000E-01 0.600 F -0.048 0.685 20.8 V 0.70 0.44 i 691 1.77 Yes Yes
1991CB1 O c 1998-01-28.52467 1.000E-05 13:19:46.980 1.500E-01 0.600 F -0.489 -0.149 -21° 11' 52.10" 1.000E-01 0.600 F -0.048 0.791 20.9 V 0.70 0.54 i 691 1.35 Yes Yes
1998BR26 O c 1998-01-30.34974 1.000E-05 08:57:50.930 1.500E-01 0.600 F 0.089 -0.366 +17° 40' 10.90" 1.000E-01 0.600 F 0.026 -1.399 19.3 V 0.70 0.76 i 691 2.59 Yes Yes
1998BR26 O c 1998-01-30.37183 1.000E-05 08:58:16.110 1.500E-01 0.600 F 0.029 -0.717 +17° 50' 11.40" 1.000E-01 0.600 F -0.085 -0.730 19.1 V 0.70 0.57 i 691 1.82 Yes Yes
1998BR26 O c 1998-01-30.37852 1.000E-05 08:58:23.880 1.500E-01 0.600 F 0.029 0.034 +17° 53' 13.90" 1.000E-01 0.600 F -0.085 -0.855 18.9 V 0.70 0.37 i 691 1.52 Yes Yes
1998BR26 O c 1998-01-30.38368 1.000E-05 08:58:29.880 1.500E-01 0.600 F 0.029 0.313 +17° 55' 36.50" 1.000E-01 0.600 F -0.085 0.588 19.1 V 0.70 0.57 i 691 1.18 Yes Yes
1998BR26 O c 1998-01-31.31683 1.000E-05 09:25:45.380 1.500E-01 0.671 F -0.310 0.295 +26° 58' 32.10" 1.000E-01 0.671 F 0.218 -0.125 18.0 V 0.70 -0.48 i 691 0.50 Yes Yes
1998BR26 O c 1998-01-31.32236 1.000E-05 09:25:57.550 1.500E-01 0.671 F -0.310 -0.375 +27° 02' 32.50" 1.000E-01 0.671 F 0.218 -1.258 18.3 V 0.70 -0.18 i 691 2.14 Yes Yes
1998BR26 O c 1998-01-31.32673 1.000E-05 09:26:07.190 1.500E-01 0.671 F -0.310 -1.048 +27° 05' 44.70" 1.000E-01 0.671 F 0.218 -0.255 18.0 V 0.70 -0.48 i 691 1.72 Yes Yes
1998BR26 O c 1998-01-31.46963 1.000E-05 09:31:44.820 1.500E-01 0.671 F -0.018 -0.229 +28° 52' 37.00" 1.000E-01 0.671 F 0.085 0.845 17.9 V 0.70 -0.57 i 691 1.38 Yes Yes
1998BR26 O c 1998-01-31.47418 1.000E-05 09:31:56.320 1.500E-01 0.671 F -0.018 -0.810 +28° 56' 05.80" 1.000E-01 0.671 F 0.085 0.305 17.9 V 0.70 -0.57 i 691 1.38 Yes Yes
1998DX11 O c 1998-02-23.35156 1.000E-05 10:42:38.220 1.500E-01 0.995 F 0.404 -0.358 +11° 53' 07.60" 1.000E-01 0.995 F 0.299 -1.241 17.7 V 0.70 -0.42 i 691 1.37 Yes Yes
1998DX11 O c 1998-02-23.37390 1.000E-05 10:43:34.320 1.500E-01 0.995 F 0.481 -0.136 +11° 31' 12.10" 1.000E-01 0.995 F 0.082 0.937 17.9 V 0.70 -0.24 i 691 1.01 Yes Yes
1998DX11 O c 1998-02-23.38840 1.000E-05 10:44:10.520 1.500E-01 0.995 F 0.329 0.266 +11° 16' 58.80" 1.000E-01 0.995 F -0.017 -1.187 17.7 V 0.70 -0.44 i 691 1.29 Yes Yes
1998DX11 O c 1998-02-23.39503 1.000E-05 10:44:26.980 1.500E-01 0.995 F 0.329 -0.270 +11° 10' 31.30" 1.000E-01 0.995 F -0.017 -0.630 18.5 V 0.70 0.35 i 691 0.72 Yes Yes
1998DX11 O c 1998-02-23.40018 1.000E-05 10:44:39.740 1.500E-01 0.995 F 0.329 -0.791 +11° 05' 32.60" 1.000E-01 0.995 F -0.017 1.621 18.0 V 0.70 -0.15 i 691 1.91 Yes Yes
1998DX11 O c 1998-02-23.40452 1.000E-05 10:44:50.540 1.500E-01 0.995 F 0.329 -0.367 +11° 01' 17.90" 1.000E-01 0.995 F -0.017 0.208 18.6 V 0.70 0.45 i 691 0.44 Yes Yes
2012DP8 O C 1998-02-23.42363 1.000E-05 12:20:54.020 1.500E-01 0.600 F 0.217 0.131 +02° 41' 36.60" 1.000E-01 0.600 F 0.622 -0.354 21.3 V 0.70 0.42 i 691 0.73 Yes Yes
1998DX11 O c 1998-02-23.43555 1.000E-05 10:46:07.190 1.500E-01 0.995 F 0.276 -1.882 +10° 31' 17.10" 1.000E-01 0.995 F 0.000 1.279 18.0 V 0.70 -0.18 i 691 2.41 Yes Yes
1998DX11 O c 1998-02-23.44056 1.000E-05 10:46:19.710 1.500E-01 0.995 F 0.276 0.481 +10° 26' 26.10" 1.000E-01 0.995 F 0.000 -0.325 19.1 V 0.70 0.92 i 691 0.61 Yes Yes
1998DX11 O c 1998-02-23.44532 1.000E-05 10:46:31.490 1.500E-01 0.995 F 0.276 1.120 +10° 21' 51.30" 1.000E-01 0.995 F 0.000 -0.574 18.4 V 0.70 0.22 i 691 1.34 Yes Yes
2012DP8 O C 1998-02-23.46235 1.000E-05 12:20:49.350 1.500E-01 0.600 F 0.217 0.071 +02° 41' 06.80" 1.000E-01 0.600 F 0.622 -0.040 21.3 V 0.70 0.42 i 691 0.16 Yes Yes
1998DX11 O c 1998-02-23.48553 1.000E-05 10:48:10.440 1.500E-01 0.995 F 0.267 0.498 +09° 43' 28.40" 1.000E-01 0.995 F -0.024 -0.427 19.1 V 0.70 0.88 i 691 0.71 Yes Yes
1998DX11 O c 1998-02-23.49193 1.000E-05 10:48:26.210 1.500E-01 0.995 F 0.267 0.864 +09° 37' 24.80" 1.000E-01 0.995 F -0.024 -0.229 18.0 V 0.70 -0.22 i 691 1.00 Yes Yes
1998BX7 O c 1998-02-24.21344 1.000E-05 09:12:20.570 1.500E-01 0.600 F -0.060 0.083 +16° 17' 54.40" 1.000E-01 0.600 F 0.002 0.009 18.6 V 0.70 0.21 i 691 0.14 Yes Yes
1998BX7 O c 1998-02-24.23549 1.000E-05 09:12:19.680 1.500E-01 0.600 F -0.060 0.221 +16° 18' 07.50" 1.000E-01 0.600 F 0.002 -0.120 18.5 V 0.70 0.11 i 691 0.42 Yes Yes
1998BX7 O c 1998-02-24.26202 1.000E-05 09:12:18.590 1.500E-01 0.600 F -0.060 0.129 +16° 18' 23.70" 1.000E-01 0.600 F 0.002 0.231 18.5 V 0.70 0.11 i 691 0.44 Yes Yes
1998DV20 O c 1998-02-24.27391 1.000E-05 07:52:47.220 1.500E-01 0.600 F -0.445 -0.037 +14° 08' 46.70" 1.000E-01 0.600 F -0.733 -0.135 20.2 V 0.70 0.29 i 691 0.29 Yes Yes
1998DV20 O c 1998-02-24.27982 1.000E-05 07:52:48.100 1.500E-01 0.600 F -0.445 -0.319 +14° 09' 04.80" 1.000E-01 0.600 F -0.733 -0.144 19.9 V 0.70 -0.01 i 691 0.71 Yes Yes
1998DV20 O c 1998-02-24.28619 1.000E-05 07:52:49.120 1.500E-01 0.600 F -0.445 0.406 +14° 09' 24.80" 1.000E-01 0.600 F -0.733 0.352 19.8 V 0.70 -0.11 i 691 1.09 Yes Yes
1998DX11 O c 1998-02-24.29577 1.000E-05 11:18:07.110 1.500E-01 0.600 F -0.053 -0.146 -01° 12' 29.30" 1.000E-01 0.600 F -1.274 1.354 19.3 V 0.70 0.30 i 691 3.09 Yes Yes
1998DX11 O c 1998-02-24.30336 1.000E-05 11:18:19.500 1.500E-01 0.600 F -0.053 0.550 -01° 17' 42.30" 1.000E-01 0.600 F -1.274 -1.017 19.1 V 0.70 0.09 i 691 2.70 Yes Yes
1998BX7 O c 1998-02-26.24910 1.000E-05 09:11:08.070 1.500E-01 0.600 F -0.060 0.398 +16° 37' 31.10" 1.000E-01 0.600 F 0.002 -0.283 18.7 V 0.70 0.21 i 691 0.82 Yes Yes
1998BX7 O c 1998-02-26.27130 1.000E-05 09:11:07.290 1.500E-01 0.600 F -0.060 0.939 +16° 37' 43.80" 1.000E-01 0.600 F 0.002 0.000 19.4 V 0.70 0.91 i 691 1.58 Yes Yes
1998BX7 O c 1998-02-26.29384 1.000E-05 09:11:06.430 1.500E-01 0.600 F -0.060 0.484 +16° 37' 56.30" 1.000E-01 0.600 F 0.002 -0.056 18.8 V 0.70 0.31 i 691 0.82 Yes Yes
1998DX11 O c 1998-02-26.45507 1.000E-05 12:01:54.770 1.500E-01 0.600 F 0.528 3.517 -17° 13' 05.00" 1.000E-01 0.600 F -0.847 -4.567 19.6 V 0.70 -0.88 i 691 6.81 No Yes
1998DX11 O c 1998-02-26.46166 1.000E-05 12:01:59.170 1.500E-01 0.600 F 0.528 -0.211 -17° 14' 48.00" 1.000E-01 0.600 F -0.847 -0.158 19.9 V 0.70 -0.58 i 691 1.35 Yes Yes
1998DX11 O c 1998-02-26.46636 1.000E-05 12:02:02.270 1.500E-01 0.600 F 0.528 -3.482 -17° 16' 03.00" 1.000E-01 0.600 F -0.847 1.201 20.4 V 0.70 -0.08 i 691 4.37 No Yes
1998DV20 O c 1998-02-28.19717 1.000E-05 08:02:41.900 1.500E-01 0.600 F -0.076 -0.066 +17° 05' 41.40" 1.000E-01 0.600 F 0.104 -0.162 20.2 V 0.70 -0.05 i 691 0.32 Yes Yes
1998DV20 O c 1998-02-28.20465 1.000E-05 08:02:42.890 1.500E-01 0.600 F -0.076 -0.391 +17° 05' 58.80" 1.000E-01 0.600 F 0.104 -0.460 20.4 V 0.70 0.15 i 691 1.11 Yes Yes
1998DV20 O c 1998-02-28.21246 1.000E-05 08:02:43.980 1.500E-01 0.600 F -0.076 0.081 +17° 06' 17.60" 1.000E-01 0.600 F 0.104 -0.117 20.3 V 0.70 0.05 i 691 0.26 Yes Yes
1998DV20 O c 1998-03-01.33383 1.000E-05 08:05:21.740 1.500E-01 0.600 F 0.123 1.208 +17° 48' 49.00" 1.000E-01 0.600 F 0.001 -0.022 19.7 V 0.70 -0.64 i 691 2.22 Yes Yes
1998DV20 O c 1998-03-01.33800 1.000E-05 08:05:22.110 1.500E-01 0.600 F 0.123 -1.496 +17° 48' 58.60" 1.000E-01 0.600 F 0.001 0.539 19.5 V 0.70 -0.84 i 691 2.93 Yes Yes
1998DV20 O c 1998-03-01.34321 1.000E-05 08:05:22.960 1.500E-01 0.600 F 0.123 0.651 +17° 49' 09.60" 1.000E-01 0.600 F 0.001 0.253 21.5 V 0.70 1.16 i 691 1.28 Yes Yes
1998EE3 O c 1998-03-01.37868 1.000E-05 10:31:48.690 1.500E-01 0.600 F 0.298 -1.437 +11° 59' 52.00" 1.000E-01 0.600 F -0.047 -1.992 20.5 V 0.70 i 691 0.00 Yes Yes
1998EE3 O c 1998-03-01.40016 1.000E-05 10:31:58.750 1.500E-01 0.600 F 0.298 -2.306 +11° 53' 58.40" 1.000E-01 0.600 F -0.047 2.027 20.1 V 0.70 i 691 0.00 Yes Yes
1998EE3 O c 1998-03-01.42021 1.000E-05 10:32:08.500 1.500E-01 0.600 F 0.298 -1.000 +11° 48' 18.50" 1.000E-01 0.600 F -0.047 -0.637 20.5 V 0.70 i 691 0.00 Yes Yes
1998EE3 O c 1998-03-01.44727 1.000E-05 10:32:22.610 1.500E-01 0.600 F 0.298 9.162 +11° 40' 40.80" 1.000E-01 0.600 F -0.047 1.982 20.0 V 0.70 i 691 0.00 Yes Yes
1998EE3 O c 1998-03-02.34460 1.000E-05 10:42:44.140 1.500E-01 0.671 F 0.040 -0.987 +06° 32' 52.70" 1.000E-01 0.671 F -0.149 -2.935 19.7 V 0.70 i 691 0.00 Yes Yes
1998EE3 O c 1998-03-02.35187 1.000E-05 10:42:49.220 1.500E-01 0.671 F 0.040 -1.383 +06° 29' 54.40" 1.000E-01 0.671 F -0.149 1.189 19.5 V 0.70 i 691 0.00 Yes Yes
1998EE3 O c 1998-03-02.36833 1.000E-05 10:43:00.890 1.500E-01 0.671 F 0.040 -1.250 +06° 22' 57.90" 1.000E-01 0.671 F -0.149 0.229 19.5 V 0.70 i 691 0.00 Yes Yes
1998EE3 O c 1998-03-02.37226 1.000E-05 10:43:03.690 1.500E-01 0.671 F 0.078 -1.384 +06° 21' 17.80" 1.000E-01 0.671 F 0.152 -0.441 19.6 V 0.70 i 691 0.00 Yes Yes
1998EE3 O c 1998-03-02.37793 1.000E-05 10:43:07.770 1.500E-01 0.671 F 0.078 -1.161 +06° 18' 54.90" 1.000E-01 0.671 F 0.152 0.896 19.7 V 0.70 i 691 0.00 Yes Yes
1998EC3 O c 1998-03-02.38832 1.000E-05 10:26:37.550 1.500E-01 0.600 F 0.297 -0.702 +19° 56' 05.30" 1.000E-01 0.600 F -0.397 0.047 18.0 V 0.70 0.13 i 691 1.18 Yes Yes
1998EC3 O c 1998-03-02.39259 1.000E-05 10:26:37.170 1.500E-01 0.600 F 0.297 -0.643 +19° 56' 09.90" 1.000E-01 0.600 F -0.397 0.071 18.1 V 0.70 0.23 i 691 1.08 Yes Yes
1998EC3 O c 1998-03-02.39661 1.000E-05 10:26:36.810 1.500E-01 0.600 F 0.297 -0.621 +19° 56' 14.10" 1.000E-01 0.600 F -0.397 -0.035 18.0 V 0.70 0.13 i 691 1.04 Yes Yes
1998EP4 O c 1998-03-02.41114 1.000E-05 12:14:25.310 1.500E-01 0.600 F 0.263 0.199 +02° 13' 46.00" 1.000E-01 0.600 F 0.626 -0.055 19.9 V 0.70 -0.71 i 691 0.35 Yes Yes
1998EP4 O c 1998-03-02.43222 1.000E-05 12:14:24.590 1.500E-01 0.600 F 0.263 0.051 +02° 13' 26.90" 1.000E-01 0.600 F 0.626 -0.274 19.8 V 0.70 -0.81 i 691 0.48 Yes Yes
1998EP4 O c 1998-03-02.45320 1.000E-05 12:14:23.890 1.500E-01 0.600 F 0.263 0.034 +02° 13' 08.20" 1.000E-01 0.600 F 0.626 -0.148 20.1 V 0.70 -0.51 i 691 0.26 Yes Yes
1998EE3 O c 1998-03-03.32289 1.000E-05 10:59:43.860 1.500E-01 0.600 F -0.379 -0.747 -02° 09' 42.10" 1.000E-01 0.600 F -0.607 0.163 19.5 V 0.70 i 691 0.00 Yes Yes
1998EE3 O c 1998-03-03.32674 1.000E-05 10:59:48.400 1.500E-01 0.600 F -0.379 0.077 -02° 12' 19.30" 1.000E-01 0.600 F -0.607 -0.377 19.5 V 0.70 i 691 0.00 Yes Yes
1998EE3 O c 1998-03-03.33090 1.000E-05 10:59:53.260 1.500E-01 0.600 F -0.379 0.118 -02° 15' 09.50" 1.000E-01 0.600 F -0.607 -0.959 19.5 V 0.70 i 691 0.00 Yes Yes
1998EP4 O c 1998-03-03.41918 1.000E-05 12:13:59.080 1.500E-01 0.600 F 0.263 -0.863 +01° 58' 23.20" 1.000E-01 0.600 F 0.626 -0.109 20.3 V 0.70 -0.22 i 691 1.50 Yes Yes
1998EP4 O c 1998-03-03.42317 1.000E-05 12:13:58.940 1.500E-01 0.600 F 0.263 -0.697 +01° 58' 18.90" 1.000E-01 0.600 F 0.626 -0.660 20.3 V 0.70 -0.22 i 691 1.66 Yes Yes
1998EP4 O c 1998-03-03.42749 1.000E-05 12:13:58.770 1.500E-01 0.600 F 0.263 -0.798 +01° 58' 14.50" 1.000E-01 0.600 F 0.626 -1.000 20.8 V 0.70 0.29 i 691 2.21 Yes Yes
1998EE3 O c 1998-03-04.31819 1.000E-05 11:29:24.280 1.500E-01 0.600 F -0.634 1.014 -16° 52' 21.70" 1.000E-01 0.600 F -0.160 -0.877 19.3 V 0.70 i 691 0.00 Yes Yes
1998EE3 O c 1998-03-04.32225 1.000E-05 11:29:33.200 1.500E-01 0.600 F -0.634 0.162 -16° 56' 54.10" 1.000E-01 0.600 F -0.160 1.644 19.3 V 0.70 i 691 0.00 Yes Yes
1998EP4 O c 1998-03-04.37483 1.000E-05 12:13:31.100 1.500E-01 0.600 F 0.102 -0.189 +01° 43' 05.50" 1.000E-01 0.600 F -0.391 0.803 20.5 V 0.70 0.08 i 691 1.42 Yes Yes
1998EP4 O c 1998-03-04.37854 1.000E-05 12:13:30.960 1.500E-01 0.600 F 0.102 0.077 +01° 43' 01.40" 1.000E-01 0.600 F -0.391 0.352 20.6 V 0.70 0.18 i 691 0.62 Yes Yes
1998EP4 O c 1998-03-04.38237 1.000E-05 12:13:30.780 1.500E-01 0.600 F 0.102 -0.179 +01° 42' 57.90" 1.000E-01 0.600 F -0.391 0.620 20.5 V 0.70 0.08 i 691 1.11 Yes Yes
1998EP4 O c 1998-03-05.34826 1.000E-05 12:12:58.500 1.500E-01 0.600 F -0.137 0.331 +01° 26' 43.90" 1.000E-01 0.600 F -1.029 1.034 19.7 V 0.70 -0.62 i 691 1.87 Yes Yes
1998EP4 O c 1998-03-05.35201 1.000E-05 12:12:58.330 1.500E-01 0.600 F -0.137 0.421 +01° 26' 39.50" 1.000E-01 0.600 F -1.029 0.508 19.8 V 0.70 -0.52 i 691 1.14 Yes Yes
1998EP4 O c 1998-03-05.35676 1.000E-05 12:12:58.100 1.500E-01 0.600 F -0.137 0.318 +01° 26' 34.80" 1.000E-01 0.600 F -1.029 0.716 19.6 V 0.70 -0.72 i 691 1.35 Yes Yes
1998FL3 O c 1998-03-22.32045 1.000E-05 12:33:13.640 1.500E-01 0.600 F 0.268 -0.499 +01° 59' 24.70" 1.000E-01 0.600 F -0.768 0.060 20.6 V 0.70 -0.08 i 691 0.87 Yes Yes
1998FL3 O c 1998-03-22.34139 1.000E-05 12:33:12.190 1.500E-01 0.600 F 0.268 -0.583 +02° 01' 01.10" 1.000E-01 0.600 F -0.768 0.049 20.8 V 0.70 0.12 i 691 1.01 Yes Yes
1998FL3 O c 1998-03-22.36486 1.000E-05 12:33:10.580 1.500E-01 0.600 F 0.268 -0.453 +02° 02' 50.80" 1.000E-01 0.600 F -0.768 1.651 20.1 V 0.70 -0.58 i 691 2.93 Yes Yes
1998FL3 O c 1998-03-23.26516 1.000E-05 12:32:16.540 1.500E-01 0.735 F 0.142 0.598 +03° 12' 38.30" 1.000E-01 0.735 F -0.354 -0.095 20.8 V 0.70 0.16 i 691 0.84 Yes Yes
1998FL3 O c 1998-03-23.26922 1.000E-05 12:32:16.230 1.500E-01 0.735 F 0.142 0.246 +03° 12' 57.20" 1.000E-01 0.735 F -0.354 -0.277 20.8 V 0.70 0.16 i 691 0.51 Yes Yes
1998FL3 O c 1998-03-23.27329 1.000E-05 12:32:15.930 1.500E-01 0.735 F 0.142 0.059 +03° 13' 16.30" 1.000E-01 0.735 F -0.354 -0.307 20.7 V 0.70 0.06 i 691 0.43 Yes Yes
1998FX134 O c 1998-03-23.35391 1.000E-05 12:20:30.950 1.500E-01 0.600 F 0.430 -0.062 -06° 15' 44.40" 1.000E-01 0.600 F 0.156 0.173 18.8 V 0.70 0.43 i 691 0.31 Yes Yes
1998FX134 O c 1998-03-23.37516 1.000E-05 12:20:29.650 1.500E-01 0.600 F 0.430 0.057 -06° 15' 51.70" 1.000E-01 0.600 F 0.156 0.084 18.5 V 0.70 0.13 i 691 0.17 Yes Yes
1998FX134 O c 1998-03-23.39619 1.000E-05 12:20:28.350 1.500E-01 0.600 F 0.430 -0.097 -06° 15' 58.70" 1.000E-01 0.600 F 0.156 0.194 18.6 V 0.70 0.23 i 691 0.37 Yes Yes
1998FL3 O c 1998-03-23.41165 1.000E-05 12:32:06.070 1.500E-01 0.735 F 0.250 -0.270 +03° 24' 09.50" 1.000E-01 0.735 F -0.281 2.025 21.9 V 0.70 1.26 i 691 2.83 Yes Yes
1998FL3 O c 1998-03-23.41560 1.000E-05 12:32:05.820 1.500E-01 0.735 F 0.250 0.151 +03° 24' 25.20" 1.000E-01 0.735 F -0.281 -0.867 21.0 V 0.70 0.36 i 691 1.22 Yes Yes
1998FL3 O c 1998-03-23.42113 1.000E-05 12:32:05.400 1.500E-01 0.735 F 0.250 -0.318 +03° 24' 52.30" 1.000E-01 0.735 F -0.281 0.203 20.6 V 0.70 -0.04 i 691 0.52 Yes Yes
1993BX3 O c 1998-03-23.43964 1.000E-05 15:17:49.410 1.500E-01 0.600 F -0.122 0.169 -14° 57' 30.10" 1.000E-01 0.600 F -0.222 0.801 21.8 V 0.70 1.11 i 691 1.36 Yes Yes
1993BX3 O c 1998-03-23.45249 1.000E-05 15:17:48.860 1.500E-01 0.600 F -0.122 1.369 -14° 57' 22.90" 1.000E-01 0.600 F -0.222 0.201 21.4 V 0.70 0.71 i 691 2.31 Yes Yes
1993BX3 O c 1998-03-23.46844 1.000E-05 15:17:47.880 1.500E-01 0.600 F -0.122 -1.444 -14° 57' 12.50" 1.000E-01 0.600 F -0.222 0.869 20.3 V 0.70 -0.38 i 691 2.81 Yes Yes
1998FL3 O c 1998-03-24.37427 1.000E-05 12:31:05.250 1.500E-01 0.600 F 0.297 0.231 +04° 40' 24.40" 1.000E-01 0.600 F -0.182 -0.244 20.5 V 0.70 -0.13 i 691 0.58 Yes Yes
1998FL3 O c 1998-03-24.37831 1.000E-05 12:31:04.950 1.500E-01 0.600 F 0.297 0.182 +04° 40' 43.70" 1.000E-01 0.600 F -0.182 -0.311 20.7 V 0.70 0.07 i 691 0.62 Yes Yes
1998FL3 O c 1998-03-24.38352 1.000E-05 12:31:04.570 1.500E-01 0.600 F 0.297 0.215 +04° 41' 08.70" 1.000E-01 0.600 F -0.182 -0.288 20.5 V 0.70 -0.13 i 691 0.62 Yes Yes
1993BX3 O c 1998-03-24.39493 1.000E-05 15:17:08.780 1.500E-01 0.600 F -0.122 0.574 -14° 47' 43.90" 1.000E-01 0.600 F -0.222 -0.409 21.1 V 0.70 0.44 i 691 1.18 Yes Yes
1993BX3 O c 1998-03-24.40599 1.000E-05 15:17:08.170 1.500E-01 0.600 F -0.122 0.261 -14° 47' 36.70" 1.000E-01 0.600 F -0.222 -0.005 20.6 V 0.70 -0.06 i 691 0.44 Yes Yes
1993BX3 O c 1998-03-24.41752 1.000E-05 15:17:07.550 1.500E-01 0.600 F -0.122 0.198 -14° 47' 29.40" 1.000E-01 0.600 F -0.222 0.183 20.5 V 0.70 -0.16 i 691 0.45 Yes Yes
1998FH74 O c 1998-04-04.26169 1.000E-05 12:04:57.410 1.500E-01 0.600 F 0.264 -0.420 -07° 25' 59.30" 1.000E-01 0.600 F 0.276 -0.365 18.8 V 0.70 -0.42 i 691 0.93 Yes Yes
1998FH74 O c 1998-04-04.26711 1.000E-05 12:04:56.920 1.500E-01 0.600 F 0.264 -0.291 -07° 25' 54.40" 1.000E-01 0.600 F 0.276 -0.469 18.8 V 0.70 -0.42 i 691 0.92 Yes Yes
1998FH74 O c 1998-04-04.27304 1.000E-05 12:04:56.400 1.500E-01 0.600 F 0.264 0.090 -07° 25' 48.50" 1.000E-01 0.600 F 0.276 -0.044 19.1 V 0.70 -0.12 i 691 0.17 Yes Yes
1998HH1 O c 1998-04-17.20933 1.000E-05 10:20:45.160 1.500E-01 0.671 F 0.112 -0.389 +10° 12' 58.30" 1.000E-01 0.671 F -0.279 -1.690 19.8 V 0.70 0.33 i 691 2.73 Yes Yes
1998HH1 O c 1998-04-17.21700 1.000E-05 10:20:50.920 1.500E-01 0.671 F 0.112 -1.439 +10° 14' 34.50" 1.000E-01 0.671 F -0.279 -1.320 19.6 V 0.70 0.13 i 691 3.07 Yes Yes
1998HH1 O c 1998-04-17.22149 1.000E-05 10:20:54.480 1.500E-01 0.671 F 0.112 0.671 +10° 15' 31.90" 1.000E-01 0.671 F -0.279 -0.011 19.4 V 0.70 -0.07 i 691 1.05 Yes Yes
1998HH1 O c 1998-04-17.31475 1.000E-05 10:22:06.270 1.500E-01 0.671 F 0.241 0.313 +10° 34' 55.80" 1.000E-01 0.671 F -0.263 0.032 19.4 V 0.70 -0.06 i 691 0.49 Yes Yes
1998HH1 O c 1998-04-17.32247 1.000E-05 10:22:12.370 1.500E-01 0.671 F 0.241 1.287 +10° 36' 32.40" 1.000E-01 0.671 F -0.263 0.369 19.7 V 0.70 0.24 i 691 2.09 Yes Yes
1998HH1 O c 1998-04-18.12914 1.000E-05 10:33:30.510 1.500E-01 0.671 F 0.294 0.646 +13° 27' 19.10" 1.000E-01 0.671 F -0.068 0.564 19.3 V 0.70 -0.11 i 691 1.32 Yes Yes
1998HH1 O c 1998-04-18.13340 1.000E-05 10:33:33.920 1.500E-01 0.671 F 0.294 -0.088 +13° 28' 13.10" 1.000E-01 0.671 F -0.068 -0.130 19.5 V 0.70 0.09 i 691 0.24 Yes Yes
1998HH1 O c 1998-04-18.13753 1.000E-05 10:33:37.330 1.500E-01 0.671 F 0.294 0.723 +13° 29' 07.60" 1.000E-01 0.671 F -0.068 1.358 19.4 V 0.70 -0.01 i 691 2.37 Yes Yes
1998HH1 O c 1998-04-18.22734 1.000E-05 10:34:50.380 1.500E-01 0.671 F 0.387 0.087 +13° 48' 16.10" 1.000E-01 0.671 F -0.224 0.374 19.3 V 0.70 -0.11 i 691 0.59 Yes Yes
1998HH1 O c 1998-04-18.23148 1.000E-05 10:34:53.710 1.500E-01 0.671 F 0.387 -0.737 +13° 49' 07.90" 1.000E-01 0.671 F -0.224 -0.671 19.5 V 0.70 0.09 i 691 1.53 Yes Yes
1998HM1 O c 1998-04-18.24981 1.000E-05 12:31:35.210 1.500E-01 0.735 F 0.155 -0.508 +00° 56' 24.70" 1.000E-01 0.735 F -0.552 -0.079 19.5 V 0.70 0.01 i 691 0.73 Yes Yes
1998HM1 O c 1998-04-18.27050 1.000E-05 12:31:32.450 1.500E-01 0.735 F 0.155 -0.448 +00° 58' 11.50" 1.000E-01 0.735 F -0.552 0.090 19.4 V 0.70 -0.09 i 691 0.65 Yes Yes
1998HM1 O c 1998-04-18.29131 1.000E-05 12:31:29.670 1.500E-01 0.735 F 0.155 -0.477 +00° 59' 58.80" 1.000E-01 0.735 F -0.552 -0.145 19.5 V 0.70 0.01 i 691 0.71 Yes Yes
1998HM1 O c 1998-04-18.30810 1.000E-05 12:31:27.470 1.500E-01 0.735 F 0.155 -0.053 +01° 01' 26.40" 1.000E-01 0.735 F -0.552 0.485 19.5 V 0.70 0.02 i 691 0.71 Yes Yes
1998HM1 O c 1998-04-18.31202 1.000E-05 12:31:26.950 1.500E-01 0.735 F 0.155 -0.091 +01° 01' 46.30" 1.000E-01 0.735 F -0.552 0.053 19.9 V 0.70 0.42 i 691 0.15 Yes Yes
1998HM1 O c 1998-04-18.31574 1.000E-05 12:31:26.440 1.500E-01 0.735 F 0.155 -0.392 +01° 02' 06.20" 1.000E-01 0.735 F -0.552 0.649 19.7 V 0.70 0.22 i 691 1.11 Yes Yes
1998HH1 O c 1998-04-19.19592 1.000E-05 10:49:11.130 1.500E-01 0.600 F 0.410 -0.575 +17° 15' 41.10" 1.000E-01 0.600 F -0.415 -0.893 19.9 V 0.70 0.53 i 691 1.82 Yes Yes
1998HH1 O c 1998-04-19.20008 1.000E-05 10:49:14.810 1.500E-01 0.600 F 0.410 0.387 +17° 16' 36.40" 1.000E-01 0.600 F -0.415 1.048 19.7 V 0.70 0.33 i 691 1.91 Yes Yes
1998HH1 O c 1998-04-19.20416 1.000E-05 10:49:18.320 1.500E-01 0.600 F 0.410 -0.109 +17° 17' 28.00" 1.000E-01 0.600 F -0.415 0.336 19.4 V 0.70 0.03 i 691 0.61 Yes Yes
1998HM1 O c 1998-04-19.23309 1.000E-05 12:30:06.960 1.500E-01 0.600 F 0.030 -0.062 +02° 27' 08.50" 1.000E-01 0.600 F -0.455 -0.026 19.5 V 0.70 0.12 i 691 0.12 Yes Yes
1998HM1 O c 1998-04-19.23685 1.000E-05 12:30:06.450 1.500E-01 0.600 F 0.030 0.630 +02° 27' 30.90" 1.000E-01 0.600 F -0.455 -0.037 19.5 V 0.70 0.12 i 691 1.11 Yes Yes
1998HN3 O c 1998-04-19.25874 1.000E-05 13:42:44.130 1.500E-01 0.600 F 0.648 -0.975 -03° 01' 08.60" 1.000E-01 0.600 F -0.334 0.123 20.5 V 0.70 0.22 i 691 1.67 Yes Yes
1998HN3 O c 1998-04-19.27944 1.000E-05 13:42:42.480 1.500E-01 0.600 F 0.648 -0.915 -03° 01' 04.90" 1.000E-01 0.600 F -0.334 0.637 20.3 V 0.70 0.02 i 691 1.90 Yes Yes
1998HN3 O c 1998-04-19.30040 1.000E-05 13:42:40.830 1.500E-01 0.600 F 0.648 -0.516 -03° 01' 01.90" 1.000E-01 0.600 F -0.334 0.407 20.2 V 0.70 -0.08 i 691 1.12 Yes Yes
Sisyphus O c 1998-04-19.45473 1.000E-05 16:33:12.290 1.500E-01 0.600 F -0.581 0.082 -00° 42' 35.00" 1.000E-01 0.600 F -0.757 -0.026 15.0 V 0.70 -0.47 i 691 0.14 Yes Yes
Sisyphus O c 1998-04-19.47189 1.000E-05 16:33:11.210 1.500E-01 0.600 F -0.581 -0.223 -00° 42' 38.50" 1.000E-01 0.600 F -0.757 0.210 15.1 V 0.70 -0.37 i 691 0.51 Yes Yes
Sisyphus O c 1998-04-19.48950 1.000E-05 16:33:10.130 1.500E-01 0.600 F -0.581 -0.118 -00° 42' 42.20" 1.000E-01 0.600 F -0.757 0.347 15.1 V 0.70 -0.37 i 691 0.61 Yes Yes
1998HH1 O c 1998-04-20.19918 1.000E-05 11:04:54.190 1.500E-01 0.600 F -0.410 -0.096 +20° 48' 44.70" 1.000E-01 0.600 F 0.873 -0.353 19.3 V 0.70 -0.06 i 691 0.63 Yes Yes
1998HH1 O c 1998-04-20.20369 1.000E-05 11:04:58.320 1.500E-01 0.600 F -0.410 -0.284 +20° 49' 42.40" 1.000E-01 0.600 F 0.873 0.625 19.5 V 0.70 0.14 i 691 1.17 Yes Yes
1998HH1 O c 1998-04-20.20791 1.000E-05 11:05:02.230 1.500E-01 0.600 F -0.410 0.162 +20° 50' 35.20" 1.000E-01 0.600 F 0.873 0.383 19.1 V 0.70 -0.26 i 691 0.71 Yes Yes
1998HM1 O c 1998-04-20.27782 1.000E-05 12:28:16.260 1.500E-01 0.600 F 0.272 -0.411 +04° 19' 47.60" 1.000E-01 0.600 F -0.094 -0.483 19.1 V 0.70 -0.16 i 691 1.09 Yes Yes
1998HM1 O c 1998-04-20.28156 1.000E-05 12:28:15.640 1.500E-01 0.600 F 0.272 -0.316 +04° 20' 12.60" 1.000E-01 0.600 F -0.094 -1.731 19.0 V 0.70 -0.26 i 691 3.06 Yes Yes
1998HM1 O c 1998-04-20.28558 1.000E-05 12:28:15.020 1.500E-01 0.600 F 0.272 0.471 +04° 20' 41.50" 1.000E-01 0.600 F -0.094 -1.055 19.6 V 0.70 0.34 i 691 2.02 Yes Yes
1998HN3 O c 1998-04-20.31437 1.000E-05 13:41:22.300 1.500E-01 0.600 F 0.648 0.184 -02° 58' 28.40" 1.000E-01 0.600 F -0.334 -0.006 20.0 V 0.70 -0.27 i 691 0.31 Yes Yes
1998HN3 O c 1998-04-20.31812 1.000E-05 13:41:21.970 1.500E-01 0.600 F 0.648 -0.209 -02° 58' 27.90" 1.000E-01 0.600 F -0.334 -0.067 20.4 V 0.70 0.13 i 691 0.37 Yes Yes
1998HN3 O c 1998-04-20.32261 1.000E-05 13:41:21.570 1.500E-01 0.600 F 0.648 -0.754 -02° 58' 26.90" 1.000E-01 0.600 F -0.334 0.262 20.2 V 0.70 -0.07 i 691 1.36 Yes Yes
1998HM1 O c 1998-04-21.28648 1.000E-05 12:26:14.040 1.500E-01 0.600 F 0.448 -0.148 +06° 28' 32.30" 1.000E-01 0.600 F -0.270 -0.155 19.1 V 0.70 -0.03 i 691 0.37 Yes Yes
1998HM1 O c 1998-04-21.29045 1.000E-05 12:26:13.340 1.500E-01 0.600 F 0.448 0.711 +06° 29' 03.50" 1.000E-01 0.600 F -0.270 -1.980 19.3 V 0.70 0.17 i 691 3.26 No Yes
1998HM1 O c 1998-04-21.29456 1.000E-05 12:26:12.520 1.500E-01 0.600 F 0.448 0.163 +06° 29' 40.00" 1.000E-01 0.600 F -0.270 0.318 19.6 V 0.70 0.47 i 691 0.63 Yes Yes
1998HN3 O c 1998-04-21.33057 1.000E-05 13:40:02.640 1.500E-01 0.600 F 0.648 0.636 -02° 55' 59.90" 1.000E-01 0.600 F -0.333 -0.325 20.1 V 0.70 -0.17 i 691 1.21 Yes Yes
1998HN3 O c 1998-04-21.33426 1.000E-05 13:40:02.300 1.500E-01 0.600 F 0.648 0.066 -02° 55' 59.10" 1.000E-01 0.600 F -0.333 -0.056 20.4 V 0.70 0.13 i 691 0.15 Yes Yes
1998HN3 O c 1998-04-21.33854 1.000E-05 13:40:01.970 1.500E-01 0.600 F 0.648 0.368 -02° 55' 58.80" 1.000E-01 0.600 F -0.333 -0.373 20.3 V 0.70 0.03 i 691 0.89 Yes Yes
1998HH1 O c 1998-04-22.13145 1.000E-05 11:37:23.450 1.500E-01 0.600 F 0.282 -0.695 +27° 16' 05.70" 1.000E-01 0.600 F 0.073 0.037 19.3 V 0.70 -0.10 i 691 1.21 Yes Yes
1998HH1 O c 1998-04-22.13589 1.000E-05 11:37:27.930 1.500E-01 0.600 F 0.282 -0.175 +27° 16' 56.40" 1.000E-01 0.600 F 0.073 -0.082 19.4 V 0.70 0.00 i 691 0.34 Yes Yes
1998HH1 O c 1998-04-22.14095 1.000E-05 11:37:32.990 1.500E-01 0.600 F 0.266 -0.139 +27° 17' 54.60" 1.000E-01 0.600 F 0.075 0.263 19.3 V 0.70 -0.10 i 691 0.52 Yes Yes
1998HN3 O c 1998-04-22.22309 1.000E-05 13:38:52.310 1.500E-01 0.600 F 0.648 0.365 -02° 53' 53.80" 1.000E-01 0.600 F -0.333 -0.031 20.1 V 0.70 -0.17 i 691 0.62 Yes Yes
1998HN3 O c 1998-04-22.24679 1.000E-05 13:38:50.360 1.500E-01 0.600 F 0.279 0.770 -02° 53' 50.30" 1.000E-01 0.600 F -0.224 0.107 20.2 V 0.70 -0.07 i 691 1.32 Yes Yes
1998HN3 O c 1998-04-22.26756 1.000E-05 13:38:48.630 1.500E-01 0.600 F 0.279 0.533 -02° 53' 47.40" 1.000E-01 0.600 F -0.224 0.152 20.1 V 0.70 -0.17 i 691 0.94 Yes Yes
Orthos O c 1998-04-23.14287 1.000E-05 10:32:30.560 1.500E-01 0.600 F 0.367 -0.412 +11° 23' 00.30" 1.000E-01 0.600 F -0.111 -0.299 19.7 V 0.70 0.36 i 691 0.85 Yes Yes
Orthos O c 1998-04-23.16451 1.000E-05 10:32:29.990 1.500E-01 0.600 F 0.367 -0.380 +11° 23' 09.30" 1.000E-01 0.600 F -0.111 -0.086 19.6 V 0.70 0.26 i 691 0.65 Yes Yes
Orthos O c 1998-04-23.18596 1.000E-05 10:32:29.420 1.500E-01 0.600 F 0.367 -0.433 +11° 23' 18.30" 1.000E-01 0.600 F -0.111 0.221 19.5 V 0.70 0.16 i 691 0.81 Yes Yes
Sisyphus O c 1998-04-23.44389 1.000E-05 16:28:49.340 1.500E-01 0.600 F -0.510 0.826 -00° 58' 52.90" 1.000E-01 0.600 F -0.567 0.272 14.9 V 0.70 -0.40 i 691 1.45 Yes Yes
Sisyphus O c 1998-04-23.46518 1.000E-05 16:28:47.730 1.500E-01 0.600 F -0.510 0.722 -00° 58' 58.70" 1.000E-01 0.600 F -0.567 0.314 14.9 V 0.70 -0.40 i 691 1.31 Yes Yes
Sisyphus O c 1998-04-23.48643 1.000E-05 16:28:46.170 1.500E-01 0.600 F -0.510 1.307 -00° 59' 04.50" 1.000E-01 0.600 F -0.567 0.351 14.9 V 0.70 -0.40 i 691 2.26 Yes Yes
1998HM1 O c 1998-04-25.20386 1.000E-05 12:13:26.460 1.500E-01 0.600 F 0.210 -2.895 +20° 05' 10.30" 1.000E-01 0.600 F -0.300 9.635 19.9 V 0.70 1.26 i 691 8.15 No Yes
1998HM1 O c 1998-04-25.20980 1.000E-05 12:13:24.000 1.500E-01 0.600 F 0.210 -3.944 +20° 07' 00.80" 1.000E-01 0.600 F -0.300 10.393 19.8 V 0.70 1.16 i 691 9.13 No Yes
1998HM1 O c 1998-04-25.21556 1.000E-05 12:13:21.700 1.500E-01 0.600 F 0.210 -3.670 +20° 08' 48.00" 1.000E-01 0.600 F -0.300 11.136 19.9 V 0.70 1.26 i 691 9.44 No Yes
1998HN3 O c 1998-04-25.32502 1.000E-05 13:34:42.500 1.500E-01 0.600 F 0.476 -0.099 -02° 47' 18.10" 1.000E-01 0.600 F -0.263 -0.195 20.8 V 0.70 0.51 i 691 0.37 Yes Yes
1998HN3 O c 1998-04-25.33164 1.000E-05 13:34:41.920 1.500E-01 0.600 F 0.476 -0.433 -02° 47' 17.20" 1.000E-01 0.600 F -0.263 -0.068 20.8 V 0.70 0.51 i 691 0.74 Yes Yes
1998HN3 O c 1998-04-25.33734 1.000E-05 13:34:41.410 1.500E-01 0.600 F 0.476 -0.883 -02° 47' 16.40" 1.000E-01 0.600 F -0.263 0.066 20.7 V 0.70 0.41 i 691 1.50 Yes Yes
1998HN3 O c 1998-04-26.32409 1.000E-05 13:33:21.260 1.500E-01 0.600 F 0.094 0.834 -02° 45' 26.30" 1.000E-01 0.600 F -0.364 -0.280 20.8 V 0.70 0.51 i 691 1.50 Yes Yes
1998HN3 O c 1998-04-26.34512 1.000E-05 13:33:19.450 1.500E-01 0.600 F 0.094 0.345 -02° 45' 24.50" 1.000E-01 0.600 F -0.364 -0.764 21.4 V 0.70 1.11 i 691 1.42 Yes Yes
1998HN3 O c 1998-04-26.36631 1.000E-05 13:33:17.680 1.500E-01 0.600 F 0.094 0.605 -02° 45' 21.00" 1.000E-01 0.600 F -0.364 0.432 20.9 V 0.70 0.61 i 691 1.25 Yes Yes
1998HG49 O c 1998-04-27.20297 1.000E-05 12:35:42.340 1.500E-01 0.600 F 0.407 0.912 +00° 46' 16.40" 1.000E-01 0.600 F -0.650 -0.401 21.4 V 0.70 0.37 i 691 1.70 Yes Yes
1998HG49 O c 1998-04-27.22402 1.000E-05 12:35:40.080 1.500E-01 0.600 F 0.407 0.448 +00° 46' 13.90" 1.000E-01 0.600 F -0.650 -0.278 21.3 V 0.70 0.27 i 691 0.90 Yes Yes
1998HG49 O c 1998-04-27.24477 1.000E-05 12:35:37.830 1.500E-01 0.600 F 0.407 -0.338 +00° 46' 11.60" 1.000E-01 0.600 F -0.650 0.023 21.3 V 0.70 0.27 i 691 0.58 Yes Yes
1998HH49 O c 1998-04-28.13785 1.000E-05 12:18:41.090 1.500E-01 0.600 F 0.591 0.178 -06° 44' 21.40" 1.000E-01 0.600 F 0.347 -0.448 20.4 V 0.70 0.04 i 691 0.84 Yes Yes
1998HH49 O c 1998-04-28.15911 1.000E-05 12:18:35.620 1.500E-01 0.600 F 0.591 -0.366 -06° 44' 25.70" 1.000E-01 0.600 F 0.347 -2.070 20.2 V 0.70 -0.16 i 691 3.34 No Yes
1998HH49 O c 1998-04-28.18013 1.000E-05 12:18:30.280 1.500E-01 0.600 F 0.591 0.310 -06° 44' 25.10" 1.000E-01 0.600 F 0.347 1.136 20.3 V 0.70 -0.06 i 691 2.07 Yes Yes
1998HG49 O c 1998-04-28.26187 1.000E-05 12:34:01.120 1.500E-01 0.600 F 0.407 0.013 +00° 43' 51.90" 1.000E-01 0.600 F -0.650 -0.127 21.2 V 0.70 0.13 i 691 0.21 Yes Yes
1998HG49 O c 1998-04-28.27712 1.000E-05 12:33:59.580 1.500E-01 0.600 F 0.407 0.124 +00° 43' 49.30" 1.000E-01 0.600 F -0.650 -0.449 21.4 V 0.70 0.33 i 691 0.79 Yes Yes
1998HH49 O c 1998-04-29.19373 1.000E-05 12:14:18.470 1.500E-01 0.600 F 0.707 -0.158 -06° 46' 31.70" 1.000E-01 0.600 F 0.450 -0.319 20.5 V 0.70 0.13 i 691 0.63 Yes Yes
1998HH49 O c 1998-04-29.20097 1.000E-05 12:14:16.540 1.500E-01 0.600 F 0.707 -0.809 -06° 46' 32.20" 1.000E-01 0.600 F 0.450 0.132 20.4 V 0.70 0.03 i 691 1.45 Yes Yes
1998HH49 O c 1998-04-29.20812 1.000E-05 12:14:14.700 1.500E-01 0.600 F 0.707 -0.461 -06° 46' 33.30" 1.000E-01 0.600 F 0.450 -0.034 20.2 V 0.70 -0.17 i 691 0.82 Yes Yes
1998HK49 O c 1998-04-29.40661 1.000E-05 15:29:45.500 1.500E-01 0.600 F 0.582 0.355 -03° 24' 07.10" 1.000E-01 0.600 F -0.332 0.849 20.0 V 0.70 0.29 i 691 1.54 Yes Yes
1998HK49 O c 1998-04-29.43749 1.000E-05 15:29:39.180 1.500E-01 0.600 F 0.582 0.225 -03° 25' 34.00" 1.000E-01 0.600 F -0.332 -0.234 19.8 V 0.70 0.09 i 691 0.56 Yes Yes
1998HK49 O c 1998-04-29.46893 1.000E-05 15:29:32.870 1.500E-01 0.600 F 0.582 1.023 -03° 27' 01.10" 1.000E-01 0.600 F -0.332 -0.138 19.7 V 0.70 -0.01 i 691 1.78 Yes Yes
1998HH49 O C 1998-04-30.28972 1.000E-05 12:09:41.660 1.500E-01 0.600 F 0.255 3.975 -06° 49' 00.10" 1.000E-01 0.600 F 0.163 -0.530 19.7 V 0.70 -0.67 i 691 6.35 No Yes
1998HH49 O C 1998-04-30.29922 1.000E-05 12:09:38.950 1.500E-01 0.600 F 0.255 0.818 -06° 49' 02.10" 1.000E-01 0.600 F 0.163 -1.275 19.4 V 0.70 -0.97 i 691 2.65 Yes Yes
1998HG49 O C I 1998-04-30.31601 1.000E-05 12:30:58.550 1.500E-01 0.600 F 0.237 -0.183 +00° 37' 57.20" 1.000E-01 0.600 F -0.754 -1.390 21.5 V 0.70 0.35 a 691 2.35 Yes Yes
1998HG49 O C 1998-04-30.32500 1.000E-05 12:30:57.780 1.500E-01 0.600 F 0.237 0.609 +00° 37' 57.00" 1.000E-01 0.600 F -0.754 0.172 22.2 V 0.70 1.05 a 691 1.07 Yes Yes
1998HG49 O C 1998-04-30.33389 1.000E-05 12:30:56.940 1.500E-01 0.600 F 0.237 0.170 +00° 37' 54.60" 1.000E-01 0.600 F -0.754 -0.484 22.6 V 0.70 1.44 a 691 0.87 Yes Yes
1998HK49 O C 1998-04-30.35561 1.000E-05 15:26:50.030 1.500E-01 0.600 F 0.834 -0.336 -04° 07' 32.70" 1.000E-01 0.600 F 0.103 -0.397 19.9 V 0.70 0.19 i 691 0.87 Yes Yes
1998HK49 O C 1998-04-30.36116 1.000E-05 15:26:48.920 1.500E-01 0.600 F 0.834 -0.261 -04° 07' 47.20" 1.000E-01 0.600 F 0.103 0.091 20.0 V 0.70 0.29 i 691 0.48 Yes Yes
1998HK49 O C 1998-04-30.36707 1.000E-05 15:26:47.740 1.500E-01 0.600 F 0.834 -0.159 -04° 08' 03.00" 1.000E-01 0.600 F 0.103 0.244 19.7 V 0.70 -0.01 i 691 0.50 Yes Yes
1998HL49 O c 1998-04-30.38170 1.000E-05 15:31:18.420 1.500E-01 0.600 F 0.379 0.496 -11° 26' 32.10" 1.000E-01 0.600 F 0.197 0.079 19.7 V 0.70 -0.03 i 691 0.84 Yes Yes
1998HL49 O c 1998-04-30.40381 1.000E-05 15:31:15.970 1.500E-01 0.600 F 0.379 0.512 -11° 26' 16.60" 1.000E-01 0.600 F 0.197 0.163 19.7 V 0.70 -0.03 i 691 0.90 Yes Yes
1998HL49 O c 1998-04-30.42592 1.000E-05 15:31:13.500 1.500E-01 0.600 F 0.379 0.191 -11° 26' 01.30" 1.000E-01 0.600 F 0.197 0.025 19.5 V 0.70 -0.23 i 691 0.32 Yes Yes
1998JH2 O c 1998-05-01.18794 1.000E-05 12:47:34.080 1.500E-01 0.600 F 0.081 -0.501 +00° 28' 03.60" 1.000E-01 0.600 F -0.429 0.061 20.6 V 0.70 0.60 i 691 0.84 Yes Yes
1998JH2 O c 1998-05-01.20936 1.000E-05 12:47:32.730 1.500E-01 0.600 F 0.081 -0.844 +00° 28' 07.70" 1.000E-01 0.600 F -0.429 0.051 20.5 V 0.70 0.50 i 691 1.41 Yes Yes
1998JH2 O c 1998-05-01.23040 1.000E-05 12:47:31.470 1.500E-01 0.600 F 0.081 -0.185 +00° 28' 11.40" 1.000E-01 0.600 F -0.429 -0.281 20.4 V 0.70 0.40 i 691 0.56 Yes Yes
1998HL49 O c 1998-05-01.39987 1.000E-05 15:29:28.320 1.500E-01 0.600 F -0.122 0.134 -11° 14' 47.20" 1.000E-01 0.600 F 0.021 0.162 19.8 V 0.70 0.08 i 691 0.35 Yes Yes
1998HL49 O c 1998-05-01.40408 1.000E-05 15:29:27.890 1.500E-01 0.600 F -0.122 0.666 -11° 14' 44.30" 1.000E-01 0.600 F 0.021 0.147 19.6 V 0.70 -0.12 i 691 1.14 Yes Yes
1998HL49 O c 1998-05-01.40813 1.000E-05 15:29:27.390 1.500E-01 0.600 F -0.122 -0.094 -11° 14' 41.50" 1.000E-01 0.600 F 0.021 0.142 19.8 V 0.70 0.08 i 691 0.28 Yes Yes
1998HK49 O c 1998-05-01.41875 1.000E-05 15:23:37.080 1.500E-01 0.600 F 0.683 -0.016 -04° 54' 33.90" 1.000E-01 0.600 F 0.212 0.100 20.3 V 0.70 0.58 i 691 0.17 Yes Yes
1998HK49 O c 1998-05-01.42436 1.000E-05 15:23:35.980 1.500E-01 0.600 F 0.683 -0.290 -04° 54' 49.20" 1.000E-01 0.600 F 0.212 -0.634 20.0 V 0.70 0.28 i 691 1.17 Yes Yes
1998HK49 O c 1998-05-01.43040 1.000E-05 15:23:34.860 1.500E-01 0.600 F 0.683 0.345 -04° 55' 04.00" 1.000E-01 0.600 F 0.212 0.241 20.6 V 0.70 0.88 i 691 0.71 Yes Yes
1998HN3 O c 1998-05-02.24834 1.000E-05 13:25:18.090 1.500E-01 0.600 F -0.052 0.900 -02° 37' 32.80" 1.000E-01 0.600 F -0.059 0.128 20.2 V 0.70 -0.14 i 691 1.54 Yes Yes
1998HN3 O c 1998-05-02.25584 1.000E-05 13:25:17.430 1.500E-01 0.600 F -0.052 0.484 -02° 37' 32.40" 1.000E-01 0.600 F -0.059 0.163 20.1 V 0.70 -0.24 i 691 0.86 Yes Yes

[1-200] [201-400] [401-600] [601-800] [801-1000] [1001-1200] [1201-1400] [1401-1600] [1601-1800] [1801-2000] [2001-2200] [2201-2400] [2401-2600] [2601-2800] [2801-3000] [3001-3200] [3201-3400] [3401-3600] [3601-3800] [3801-4000] [4001-4200] [4201-4400] [4401-4600] [4601-4800] [4801-5000] [5001-5200] [5201-5400] [5401-5600] [5601-5800] [5801-6000] [6001-6200] [6201-6400] [6401-6600] [6601-6800] [6801-7000] [7001-7200] [7201-7400] [7401-7600] [7601-7800] [7801-8000] [8001-8200] [8201-8400] [8401-8600] [8601-8800] [8801-9000] [9001-9200] [9201-9400] [9401-9600] [9601-9800] [9801-10000] [10001-10200] [10201-10400] [10401-10600] [10601-10800] [10801-11000] [11001-11200] [11201-11400] [11401-11600] [11601-11800] [11801-12000] [12001-12200] [12201-12400] [12401-12600] [12601-12800] [12801-13000] [13001-13200] [13201-13400] [13401-13600] [13601-13800] [13801-14000] [14001-14200] [14201-14400] [14401-14600] [14601-14800] [14801-15000] [15001-15200] [15201-15400] [15401-15600] [15601-15800] [15801-16000] [16001-16200] [16201-16400] [16401-16600] [16601-16800] [16801-17000] [17001-17200] [17201-17400] [17401-17600] [17601-17800] [17801-18000] [18001-18200] [18201-18400] [18401-18600] [18601-18800] [18801-19000] [19001-19200] [19201-19400] [19401-19600] [19601-19800] [19801-20000] [20001-20200] [20201-20400] [20401-20600] [20601-20800] [20801-21000] [21001-21200] [21201-21400] [21401-21600] [21601-21800] [21801-22000] [22001-22200] [22201-22400] [22401-22600] [22601-22800] [22801-23000] [23001-23200] [23201-23400] [23401-23600] [23601-23800] [23801-24000] [24001-24200] [24201-24400] [24401-24600] [24601-24800] [24801-25000] [25001-25200] [25201-25400] [25401-25600] [25601-25800] [25801-26000] [26001-26200] [26201-26400] [26401-26600] [26601-26800] [26801-27000] [27001-27200] [27201-27400] [27401-27600] [27601-27800] [27801-28000] [28001-28200] [28201-28400] [28401-28600] [28601-28800] [28801-29000] [29001-29200] [29201-29400] [29401-29600] [29601-29800] [29801-30000] [30001-30200] [30201-30400] [30401-30600] [30601-30800] [30801-31000] [31001-31200] [31201-31400] [31401-31600] [31601-31800] [31801-32000] [32001-32200] [32201-32400] [32401-32600] [32601-32800] [32801-33000] [33001-33200] [33201-33400] [33401-33600] [33601-33800] [33801-34000] [34001-34200] [34201-34400] [34401-34600] [34601-34800] [34801-35000] [35001-35200] [35201-35400] [35401-35600] [35601-35800] [35801-36000] [36001-36200] [36201-36400] [36401-36600] [36601-36800] [36801-37000] [37001-37200] [37201-37400] [37401-37600] [37601-37800] [37801-38000] [38001-38200] [38201-38400] [38401-38600] [38601-38800] [38801-39000] [39001-39200] [39201-39400] [39401-39600] [39601-39800] [39801-40000] [40001-40200] [40201-40400] [40401-40600] [40601-40800] [40801-41000] [41001-41200] [41201-41400] [41401-41600] [41601-41800] [41801-42000] [42001-42200] [42201-42400] [42401-42600] [42601-42800] [42801-43000] [43001-43200] [43201-43400] [43401-43600] [43601-43800] [43801-44000] [44001-44200] [44201-44400] [44401-44600] [44601-44800] [44801-45000] [45001-45200] [45201-45400] [45401-45600] [45601-45800] [45801-46000] [46001-46200] [46201-46400] [46401-46600] [46601-46800] [46801-47000] [47001-47200] [47201-47400] [47401-47600] [47601-47800] [47801-48000] [48001-48200] [48201-48400] [48401-48600] [48601-48800] [48801-49000] [49001-49200] [49201-49400] [49401-49600] [49601-49800] [49801-50000] [50001-50200] [50201-50388]